Cannon Beach, Oregon
Current Conditions -  °F | °C
As of 4:55 PM on Monday 26 Jan 2015 (Local Time) from KAST Reporting Station
Overcast Overcast  
Wind Chill: 54°   Ceiling: 2000
Heat Index: 54°   Visibility: 9mi
Dew Point: 50°   Wind: 13mph
Humidity: 86%   Direction: 230°SW
Pressure: 29.97"   Gusts: NA
Location:  45.89°N, 123.96°W
Report Text: KAST 270055Z AUTO 23011KT 9SM SCT013 OVC020 12/10 A2997 RMK AO2 CIG 013 RWY 08 SLP147 T01220100
Loading
Personal Weather Stations






























Interactive Weather Map New forecast layout! Learn more

10-Day Weather Forecast

Advertisements
Track Severe Weather on mobile